Time;durP1;ratioP1;P1;durP2;ratioP2;P2;SDS_P1;SDS_P2;PMS_P1;PMS_P2;Temp;Humidity;BMP_temperature;BMP_pressure;BME280_temperature;BME280_humidity;BME280_pressure;Samples;Min_cycle;Max_cycle;Signal;HPM_P1;HPM_P2
2022/07/30 00:01:40;;;;;;;0.60;0.60;;;;;;;29.48;40.88;99335.81;5050730;28;20045;-59
2022/07/30 00:04:05;;;;;;;1.23;0.80;;;;;;;29.47;41.24;99335.00;5050645;28;20037;-58
2022/07/30 00:06:31;;;;;;;0.95;0.63;;;;;;;29.48;41.23;99327.34;5050565;28;20048;-58
2022/07/30 00:08:57;;;;;;;0.98;0.77;;;;;;;29.46;41.20;99330.63;5050456;28;20048;-59
2022/07/30 00:11:23;;;;;;;1.13;0.70;;;;;;;29.46;41.28;99327.00;5050447;28;20052;-58
2022/07/30 00:13:49;;;;;;;1.38;0.90;;;;;;;29.47;41.08;99320.94;5050524;28;20060;-59
2022/07/30 00:16:14;;;;;;;1.25;0.90;;;;;;;29.49;41.02;99320.47;5049568;28;20048;-58
2022/07/30 00:18:40;;;;;;;1.42;0.80;;;;;;;29.48;41.28;99322.50;5050523;28;21345;-57
2022/07/30 00:21:05;;;;;;;1.25;0.80;;;;;;;29.47;40.88;99317.31;5050287;28;20110;-59
2022/07/30 00:23:31;;;;;;;0.88;0.70;;;;;;;29.48;41.17;99322.50;5050349;28;20060;-59
2022/07/30 00:25:56;;;;;;;1.27;0.80;;;;;;;29.48;41.24;99319.69;5050239;28;20110;-59
2022/07/30 00:28:22;;;;;;;1.70;1.00;;;;;;;29.48;41.26;99321.72;5048228;28;20144;-59
2022/07/30 00:30:47;;;;;;;1.35;0.90;;;;;;;29.48;41.08;99325.31;5050214;28;20084;-59
2022/07/30 00:33:16;;;;;;;1.73;0.90;;;;;;;29.47;40.99;99320.94;5050103;28;20415;-58
2022/07/30 00:35:41;;;;;;;1.20;0.80;;;;;;;29.48;40.86;99316.88;5050140;28;20041;-59
2022/07/30 00:38:07;;;;;;;1.67;0.90;;;;;;;29.47;41.00;99317.31;5050124;28;20098;-59
2022/07/30 00:40:32;;;;;;;1.38;0.90;;;;;;;29.47;40.91;99318.09;5050255;28;20041;-58
2022/07/30 00:42:58;;;;;;;1.65;1.00;;;;;;;29.48;41.18;99322.50;5050209;28;20401;-58
2022/07/30 00:45:23;;;;;;;1.20;0.80;;;;;;;29.47;40.99;99314.50;5050155;28;20033;-59
2022/07/30 00:47:48;;;;;;;1.52;0.90;;;;;;;29.48;40.90;99319.69;5050074;28;20045;-58
2022/07/30 00:50:14;;;;;;;1.80;0.80;;;;;;;29.47;41.19;99320.94;5050169;28;20037;-58
2022/07/30 00:52:41;;;;;;;1.20;0.80;;;;;;;29.49;40.98;99320.47;5050018;28;20045;-58
2022/07/30 00:55:09;;;;;;;0.73;0.60;;;;;;;29.48;41.16;99316.09;5049942;28;20331;-59
2022/07/30 00:57:34;;;;;;;1.40;0.80;;;;;;;29.46;40.93;99304.47;5049747;28;20041;-59
2022/07/30 01:00:00;;;;;;;1.13;0.75;;;;;;;29.45;41.13;99306.50;5049552;28;20086;-59
2022/07/30 01:02:25;;;;;;;2.08;1.13;;;;;;;29.48;40.91;99305.59;5049918;28;20041;-58
2022/07/30 01:04:51;;;;;;;1.50;0.88;;;;;;;29.49;41.10;99304.38;5049829;28;20500;-57
2022/07/30 01:07:16;;;;;;;1.70;1.00;;;;;;;29.47;40.83;99306.84;5049648;28;20049;-58
2022/07/30 01:09:41;;;;;;;1.67;0.90;;;;;;;29.47;40.96;99298.38;5049823;28;20126;-59
2022/07/30 01:12:08;;;;;;;1.60;0.70;;;;;;;29.47;41.03;99304.03;5049732;28;20171;-59
2022/07/30 01:14:35;;;;;;;1.33;0.80;;;;;;;29.47;41.16;99312.47;5049730;28;20037;-59
2022/07/30 01:17:01;;;;;;;1.48;0.80;;;;;;;29.47;41.13;99304.03;5049780;28;20498;-58
2022/07/30 01:19:47;;;;;;;1.23;0.85;;;;;;;29.47;40.87;99311.69;5049572;28;20049;-58
2022/07/30 01:22:27;;;;;;;1.30;0.80;;;;;;;29.48;41.07;99307.63;5049795;28;20055;-58
2022/07/30 01:25:01;;;;;;;1.30;0.80;;;;;;;29.47;41.17;99306.03;5049724;28;20049;-58
2022/07/30 01:27:29;;;;;;;1.00;0.70;;;;;;;29.48;41.07;99310.44;5051611;28;20107;-58
2022/07/30 01:29:58;;;;;;;0.98;0.77;;;;;;;29.47;41.17;99303.22;5053079;28;20162;-59
2022/07/30 01:32:25;;;;;;;1.40;0.90;;;;;;;29.47;40.87;99308.88;5053087;28;20052;-59
2022/07/30 01:34:54;;;;;;;1.25;0.80;;;;;;;29.46;41.23;99302.44;5053098;28;20052;-59
2022/07/30 01:37:20;;;;;;;0.73;0.57;;;;;;;29.47;40.84;99314.50;5052817;28;20424;-59
2022/07/30 01:39:48;;;;;;;3.08;0.80;;;;;;;29.46;40.86;99310.09;5052916;28;20037;-59
2022/07/30 01:42:14;;;;;;;0.98;0.70;;;;;;;29.47;40.85;99306.84;5052795;28;20459;-58
2022/07/30 01:44:42;;;;;;;1.23;0.80;;;;;;;29.45;41.05;99300.84;5052798;28;20080;-59
2022/07/30 01:47:09;;;;;;;1.40;0.80;;;;;;;29.48;41.14;99302.00;5052672;28;20045;-58
2022/07/30 01:49:36;;;;;;;1.10;0.70;;;;;;;29.48;40.93;99308.41;5052863;28;20543;-58
2022/07/30 01:52:03;;;;;;;1.77;0.80;;;;;;;29.47;40.72;99304.03;5052864;28;20068;-59
2022/07/30 01:54:30;;;;;;;1.48;0.85;;;;;;;29.47;40.71;99304.03;5052671;28;20048;-58
2022/07/30 01:56:59;;;;;;;1.20;0.80;;;;;;;29.47;40.73;99292.75;5052598;28;20137;-57
2022/07/30 01:59:26;;;;;;;1.50;0.90;;;;;;;29.47;41.03;99294.78;5052543;28;20049;-57
2022/07/30 02:01:52;;;;;;;1.13;0.65;;;;;;;29.45;40.81;99281.13;5052823;28;20120;-57
2022/07/30 02:04:18;;;;;;;1.20;0.70;;;;;;;29.47;41.14;99287.09;5052690;28;20124;-58
2022/07/30 02:06:51;;;;;;;0.98;0.70;;;;;;;29.44;40.65;99279.53;5052430;28;20051;-59
2022/07/30 02:09:22;;;;;;;1.42;0.80;;;;;;;29.47;41.11;99289.94;5052464;28;20136;-59
2022/07/30 02:14:44;;;;;;;1.13;0.80;;;;;;;29.48;40.79;99280.22;5052516;28;20412;-59
2022/07/30 02:17:16;;;;;;;1.23;0.80;;;;;;;29.45;40.95;99281.13;5050207;28;20037;-59
2022/07/30 02:19:44;;;;;;;0.70;0.57;;;;;;;29.47;40.78;99278.66;5052342;28;20041;-57
2022/07/30 02:22:13;;;;;;;0.90;0.60;;;;;;;29.46;41.08;99273.47;5052153;28;20140;-59
2022/07/30 02:24:41;;;;;;;1.25;0.77;;;;;;;29.46;40.88;99279.09;5052161;28;20047;-59
2022/07/30 02:27:18;;;;;;;1.40;0.80;;;;;;;29.47;40.77;99289.13;5052314;28;20049;-58
2022/07/30 02:29:46;;;;;;;1.17;0.90;;;;;;;29.48;40.68;99287.91;5052210;28;20041;-58
2022/07/30 02:32:16;;;;;;;0.95;0.70;;;;;;;29.46;40.71;99288.34;5051872;28;20073;-58
2022/07/30 02:34:43;;;;;;;0.90;0.70;;;;;;;29.46;40.96;99290.38;5051947;28;20136;-59
2022/07/30 02:37:13;;;;;;;1.10;0.75;;;;;;;29.47;40.92;99289.13;5052042;28;20132;-59
2022/07/30 02:39:41;;;;;;;1.15;0.80;;;;;;;29.48;40.68;99293.53;5051218;28;20037;-59
2022/07/30 02:42:08;;;;;;;1.48;0.80;;;;;;;29.47;40.99;99294.78;5052121;28;20148;-58
2022/07/30 02:44:37;;;;;;;1.50;0.90;;;;;;;29.46;40.71;99288.34;5051931;28;20060;-58
2022/07/30 02:47:04;;;;;;;0.90;0.70;;;;;;;29.46;40.78;99301.66;5051832;28;20485;-58
2022/07/30 02:49:34;;;;;;;1.10;0.70;;;;;;;29.47;40.77;99298.38;5051745;28;20044;-59
2022/07/30 02:52:01;;;;;;;0.90;0.63;;;;;;;29.47;41.03;99292.75;5051940;28;20119;-58
2022/07/30 02:54:29;;;;;;;1.35;0.70;;;;;;;29.48;40.67;99293.53;5051804;28;20041;-59
2022/07/30 02:56:56;;;;;;;1.38;0.75;;;;;;;29.46;41.05;99293.19;5050482;28;20101;-58
2022/07/30 02:59:23;;;;;;;1.05;0.63;;;;;;;29.47;40.88;99294.78;5051620;28;20562;-58
2022/07/30 03:01:50;;;;;;;1.20;0.70;;;;;;;29.46;41.12;99296.00;5051321;28;20167;-58
2022/07/30 03:04:19;;;;;;;1.05;0.70;;;;;;;29.46;41.04;99293.19;5051682;28;20076;-58
2022/07/30 03:06:46;;;;;;;1.70;1.00;;;;;;;29.46;41.01;99293.19;5051671;28;20175;-58
2022/07/30 03:09:11;;;;;;;0.93;0.70;;;;;;;29.45;40.69;99300.84;5051581;28;20041;-58
2022/07/30 03:11:38;;;;;;;1.13;0.80;;;;;;;29.46;40.70;99296.78;5051290;28;20527;-57
2022/07/30 03:14:04;;;;;;;1.02;0.63;;;;;;;29.47;40.88;99294.78;5051346;28;20509;-58
2022/07/30 03:16:33;;;;;;;1.20;0.82;;;;;;;29.46;40.97;99299.63;5051544;28;20136;-59
2022/07/30 03:19:01;;;;;;;0.82;0.70;;;;;;;29.47;40.83;99300.41;5051561;28;20072;-59
2022/07/30 03:21:28;;;;;;;0.77;0.60;;;;;;;29.44;40.83;99296.44;5051237;28;20049;-58
2022/07/30 03:23:56;;;;;;;1.20;0.70;;;;;;;29.46;40.96;99298.81;5051359;28;20037;-58
2022/07/30 03:26:22;;;;;;;0.82;0.70;;;;;;;29.48;40.99;99307.63;5051326;28;20077;-58
2022/07/30 03:28:49;;;;;;;1.23;0.80;;;;;;;29.46;40.83;99305.25;5051215;28;20041;-57
2022/07/30 03:31:15;;;;;;;1.02;0.70;;;;;;;29.43;40.95;99306.09;5051342;28;20045;-58
2022/07/30 03:33:42;;;;;;;0.98;0.65;;;;;;;29.45;40.85;99303.66;5051055;28;20121;-59
2022/07/30 03:36:11;;;;;;;1.38;0.77;;;;;;;29.46;40.66;99307.28;5051181;28;20469;-59
2022/07/30 03:38:38;;;;;;;0.90;0.70;;;;;;;29.46;40.69;99316.53;5051135;28;20052;-59
2022/07/30 03:41:05;;;;;;;1.10;0.80;;;;;;;29.45;40.78;99320.59;5051060;28;20037;-58
2022/07/30 03:43:32;;;;;;;1.00;0.65;;;;;;;29.47;40.80;99312.47;5051045;28;20080;-58
2022/07/30 03:45:58;;;;;;;1.10;0.70;;;;;;;29.45;40.99;99312.13;5051076;28;20105;-58
2022/07/30 03:48:25;;;;;;;1.15;0.70;;;;;;;29.46;41.04;99310.88;5051043;28;20037;-58
2022/07/30 03:50:52;;;;;;;2.40;0.90;;;;;;;29.46;40.54;99319.34;5050959;28;20572;-58
2022/07/30 03:53:18;;;;;;;1.40;0.70;;;;;;;29.46;40.72;99322.16;5050892;28;20174;-59
2022/07/30 03:55:44;;;;;;;1.27;0.75;;;;;;;29.47;41.03;99314.50;5050845;28;20421;-58
2022/07/30 03:58:10;;;;;;;1.10;0.70;;;;;;;29.45;41.02;99320.59;5050775;28;20048;-57
2022/07/30 04:00:39;;;;;;;3.00;0.70;;;;;;;29.46;41.00;99324.97;5050892;28;20093;-58
2022/07/30 04:03:04;;;;;;;0.60;0.57;;;;;;;29.46;40.96;99330.63;5050933;28;20210;-58
2022/07/30 04:05:30;;;;;;;0.98;0.68;;;;;;;29.47;40.89;99334.22;5050624;28;20049;-59
2022/07/30 04:07:55;;;;;;;0.77;0.57;;;;;;;29.47;41.02;99329.38;5050595;28;20041;-59
2022/07/30 04:10:21;;;;;;;1.15;0.80;;;;;;;29.44;40.79;99324.63;5050596;28;20048;-59
2022/07/30 04:12:46;;;;;;;0.98;0.70;;;;;;;29.46;40.65;99332.66;5050584;28;20058;-57
2022/07/30 04:15:11;;;;;;;0.77;0.60;;;;;;;29.47;40.67;99337.84;5050476;28;20127;-58
2022/07/30 04:17:48;;;;;;;0.98;0.70;;;;;;;29.44;40.67;99341.53;5050511;28;20037;-58
2022/07/30 04:20:20;;;;;;;1.00;0.70;;;;;;;29.47;40.86;99345.50;5050392;28;20061;-59
2022/07/30 04:22:46;;;;;;;0.95;0.60;;;;;;;29.47;40.64;99351.94;5050364;28;20048;-58
2022/07/30 04:25:13;;;;;;;0.73;0.63;;;;;;;29.44;40.96;99349.19;5050582;28;20063;-59
2022/07/30 04:27:39;;;;;;;0.93;0.65;;;;;;;29.43;40.86;99356.84;5050423;28;20053;-57
2022/07/30 04:30:06;;;;;;;0.88;0.68;;;;;;;29.45;40.81;99348.75;5050346;28;20535;-58
2022/07/30 04:32:32;;;;;;;1.05;0.77;;;;;;;29.46;40.89;99352.38;5050154;28;20393;-58
2022/07/30 04:34:57;;;;;;;1.45;0.85;;;;;;;29.45;40.69;99356.41;5050071;28;20099;-58
2022/07/30 04:37:25;;;;;;;1.02;0.70;;;;;;;29.46;40.74;99366.47;5050355;28;20102;-58
2022/07/30 04:39:56;;;;;;;1.27;0.70;;;;;;;29.46;40.85;99363.63;5050263;28;20045;-58
2022/07/30 04:42:23;;;;;;;0.95;0.70;;;;;;;29.46;40.70;99372.88;5050207;28;20485;-59
2022/07/30 04:44:48;;;;;;;1.27;0.65;;;;;;;29.46;40.78;99375.72;5050034;28;20481;-57
2022/07/30 04:47:15;;;;;;;0.93;0.60;;;;;;;29.46;40.66;99372.88;5050137;28;20133;-59
2022/07/30 04:49:41;;;;;;;1.02;0.70;;;;;;;29.44;40.63;99375.34;5050044;28;20036;-58
2022/07/30 04:52:08;;;;;;;1.08;0.70;;;;;;;29.46;40.94;99383.38;5049841;28;20056;-59
2022/07/30 04:54:41;;;;;;;0.93;0.60;;;;;;;29.45;40.63;99382.56;5049741;28;20052;-59
2022/07/30 04:57:12;;;;;;;1.10;0.60;;;;;;;29.46;40.77;99389.00;5049853;28;20047;-58
2022/07/30 04:59:38;;;;;;;0.60;0.60;;;;;;;29.47;40.62;99396.22;5049742;28;20041;-57
2022/07/30 05:02:06;;;;;;;1.20;0.70;;;;;;;29.46;40.74;99401.06;5049311;28;20045;-58
2022/07/30 05:04:33;;;;;;;0.85;0.50;;;;;;;29.46;40.79;99391.81;5049769;28;20501;-58
2022/07/30 05:07:02;;;;;;;1.13;0.70;;;;;;;29.46;40.71;99397.47;5049729;28;20103;-59
2022/07/30 05:09:29;;;;;;;0.70;0.60;;;;;;;29.46;40.88;99401.06;5049894;28;20045;-58
2022/07/30 05:11:56;;;;;;;0.98;0.73;;;;;;;29.46;40.87;99394.66;5049926;28;20131;-58
2022/07/30 05:14:23;;;;;;;1.48;0.88;;;;;;;29.45;40.86;99402.31;5049623;28;20428;-58
2022/07/30 05:16:49;;;;;;;0.98;0.63;;;;;;;29.44;40.93;99409.19;5049731;28;20100;-58
2022/07/30 05:19:16;;;;;;;1.00;0.60;;;;;;;29.45;40.64;99402.31;5049597;28;20057;-59
2022/07/30 05:21:41;;;;;;;0.60;0.50;;;;;;;29.44;40.73;99403.53;5049559;28;20049;-59
2022/07/30 05:24:07;;;;;;;0.90;0.60;;;;;;;29.47;40.77;99413.13;5049341;28;20530;-58
2022/07/30 05:26:32;;;;;;;0.70;0.50;;;;;;;29.46;40.54;99400.28;5049362;28;20049;-57
2022/07/30 05:28:58;;;;;;;0.60;0.50;;;;;;;29.45;40.75;99399.47;5049610;28;20041;-57
2022/07/30 05:31:24;;;;;;;1.10;0.63;;;;;;;29.46;40.62;99401.06;5049430;28;20049;-58
2022/07/30 05:33:49;;;;;;;1.13;0.70;;;;;;;29.47;40.76;99404.69;5049495;28;20057;-59
2022/07/30 05:36:15;;;;;;;0.77;0.60;;;;;;;29.44;40.44;99408.38;5049492;28;20130;-57
2022/07/30 05:38:40;;;;;;;1.20;0.80;;;;;;;29.46;40.75;99403.09;5049438;28;20048;-57
2022/07/30 05:41:05;;;;;;;1.30;0.70;;;;;;;29.47;40.76;99410.31;5049332;28;20041;-59
2022/07/30 05:43:31;;;;;;;0.65;0.50;;;;;;;29.47;40.71;99413.94;5049395;28;20045;-58
2022/07/30 05:45:56;;;;;;;1.10;0.73;;;;;;;29.46;40.81;99412.34;5049294;28;20493;-59
2022/07/30 05:48:22;;;;;;;0.85;0.65;;;;;;;29.47;40.67;99413.94;5049183;28;20136;-59
2022/07/30 05:50:48;;;;;;;0.98;0.63;;;;;;;29.45;40.88;99409.97;5049210;28;20120;-58
2022/07/30 05:53:13;;;;;;;0.77;0.50;;;;;;;29.45;40.41;99407.94;5049162;28;20044;-59
2022/07/30 05:55:38;;;;;;;0.88;0.60;;;;;;;29.47;40.62;99410.31;5049084;28;20037;-59
2022/07/30 05:58:04;;;;;;;1.05;0.80;;;;;;;29.46;40.71;99411.56;5049106;28;20041;-58
2022/07/30 06:00:29;;;;;;;0.98;0.55;;;;;;;29.46;40.90;99411.56;5048978;28;20049;-59
2022/07/30 06:02:54;;;;;;;0.90;0.63;;;;;;;29.37;40.47;99406.50;5049030;28;20041;-59
2022/07/30 06:05:20;;;;;;;0.60;0.50;;;;;;;29.26;40.77;99414.38;5049103;28;20045;-57
2022/07/30 06:07:46;;;;;;;1.13;0.65;;;;;;;29.11;40.68;99419.50;5049360;28;20094;-58
2022/07/30 06:10:11;;;;;;;1.17;0.70;;;;;;;29.00;41.42;99414.03;5048752;28;20053;-58
2022/07/30 06:12:37;;;;;;;1.00;0.70;;;;;;;28.85;41.87;99412.69;5048793;28;20049;-58
2022/07/30 06:15:03;;;;;;;0.98;0.60;;;;;;;28.79;42.06;99415.22;5051977;28;20468;-59
2022/07/30 06:17:29;;;;;;;0.75;0.52;;;;;;;28.71;42.12;99418.56;5052356;28;20524;-58
2022/07/30 06:19:54;;;;;;;0.70;0.50;;;;;;;28.69;42.14;99409.78;5052273;28;20045;-58
2022/07/30 06:22:20;;;;;;;0.98;0.60;;;;;;;28.68;42.18;99411.78;5052223;28;20086;-58
2022/07/30 06:24:45;;;;;;;0.70;0.60;;;;;;;28.67;42.17;99412.22;5052336;28;20041;-58
2022/07/30 06:27:11;;;;;;;0.85;0.70;;;;;;;28.63;42.15;99409.47;5052271;28;20459;-59
2022/07/30 06:29:37;;;;;;;1.10;0.80;;;;;;;28.67;42.00;99420.69;5052236;28;20045;-58
2022/07/30 06:32:03;;;;;;;0.90;0.50;;;;;;;28.67;42.11;99417.88;5052193;28;20048;-58
2022/07/30 06:34:28;;;;;;;0.60;0.50;;;;;;;28.62;42.05;99407.09;5052124;28;20041;-57
2022/07/30 06:36:54;;;;;;;1.00;0.70;;;;;;;28.64;42.06;99413.88;5052071;28;20048;-57
2022/07/30 06:39:19;;;;;;;0.63;0.60;;;;;;;28.62;42.05;99410.69;5051965;28;20488;-58
2022/07/30 06:41:45;;;;;;;0.88;0.60;;;;;;;28.61;42.01;99416.75;5052046;28;20497;-58
2022/07/30 06:44:10;;;;;;;0.82;0.60;;;;;;;28.62;41.93;99410.69;5052019;28;20056;-58
2022/07/30 06:46:36;;;;;;;0.80;0.50;;;;;;;28.62;41.74;99407.88;5051996;28;20037;-58
2022/07/30 06:49:01;;;;;;;1.08;0.75;;;;;;;28.61;41.71;99423.19;5051865;28;20087;-58
2022/07/30 06:51:27;;;;;;;1.10;0.60;;;;;;;28.57;41.73;99422.44;5051811;28;20048;-58
2022/07/30 06:53:52;;;;;;;0.57;0.50;;;;;;;28.61;41.80;99417.56;5051653;28;20037;-58
2022/07/30 06:56:18;;;;;;;0.80;0.50;;;;;;;28.59;41.88;99428.44;5051838;28;20053;-58
2022/07/30 06:58:43;;;;;;;0.50;0.47;;;;;;;28.61;41.62;99419.56;5051576;28;20041;-58
2022/07/30 07:01:09;;;;;;;0.80;0.60;;;;;;;28.59;41.89;99422.81;5051570;28;20190;-57
2022/07/30 07:03:34;;;;;;;0.75;0.60;;;;;;;28.59;41.64;99430.47;5051507;28;20076;-58
2022/07/30 07:05:59;;;;;;;1.05;0.70;;;;;;;28.59;41.50;99427.66;5051435;28;20052;-58
2022/07/30 07:08:25;;;;;;;0.80;0.55;;;;;;;28.52;41.43;99418.09;5051780;28;20040;-59
2022/07/30 07:10:50;;;;;;;0.80;0.60;;;;;;;28.55;41.64;99422.06;5051740;28;20048;-58
2022/07/30 07:13:16;;;;;;;0.80;0.50;;;;;;;28.54;41.50;99419.69;5051513;28;20056;-57
2022/07/30 07:15:41;;;;;;;0.63;0.52;;;;;;;28.55;41.87;99424.09;5051356;28;20501;-58
2022/07/30 07:18:07;;;;;;;0.80;0.50;;;;;;;28.52;41.52;99418.09;5051428;28;20056;-58
2022/07/30 07:20:33;;;;;;;0.80;0.60;;;;;;;28.56;41.25;99423.66;5051188;28;20068;-59
2022/07/30 07:22:59;;;;;;;0.70;0.50;;;;;;;28.50;41.53;99423.38;5051281;28;20080;-58
2022/07/30 07:25:25;;;;;;;1.50;0.80;;;;;;;28.50;41.58;99425.38;5050946;28;20115;-59
2022/07/30 07:27:50;;;;;;;0.60;0.50;;;;;;;28.51;41.54;99427.78;5051239;28;20045;-59
2022/07/30 07:30:15;;;;;;;0.75;0.52;;;;;;;28.54;41.37;99422.50;5051360;28;20068;-59
2022/07/30 07:32:41;;;;;;;0.65;0.60;;;;;;;28.55;41.12;99421.28;5050816;28;20520;-59
2022/07/30 07:35:07;;;;;;;0.82;0.60;;;;;;;28.59;41.17;99417.19;5051174;28;20131;-59
2022/07/30 07:37:32;;;;;;;1.10;0.60;;;;;;;28.57;41.21;99424.44;5051256;28;20099;-58
2022/07/30 07:39:58;;;;;;;0.95;0.65;;;;;;;28.55;41.24;99408.00;5050804;28;20052;-57
2022/07/30 07:42:24;;;;;;;0.85;0.60;;;;;;;28.54;41.42;99409.22;5051095;28;20059;-58
2022/07/30 07:44:50;;;;;;;0.85;0.60;;;;;;;28.51;41.19;99405.25;5051067;28;20057;-58
2022/07/30 07:47:15;;;;;;;0.85;0.60;;;;;;;28.54;41.27;99402.81;5051007;28;20386;-58
2022/07/30 07:49:41;;;;;;;0.52;0.50;;;;;;;28.55;41.05;99404.41;5050803;28;20128;-58
2022/07/30 07:52:06;;;;;;;0.65;0.50;;;;;;;28.54;40.93;99400.78;5051165;28;20047;-59
2022/07/30 07:54:32;;;;;;;0.50;0.40;;;;;;;28.54;40.96;99405.63;5050893;28;20406;-57
2022/07/30 07:56:57;;;;;;;1.05;0.70;;;;;;;28.53;41.00;99402.00;5050719;28;20643;-57
2022/07/30 07:59:23;;;;;;;0.77;0.57;;;;;;;28.50;40.89;99391.59;5050790;28;20488;-59
2022/07/30 08:01:49;;;;;;;0.65;0.43;;;;;;;28.49;41.07;99396.44;5050590;28;20068;-58
2022/07/30 08:04:15;;;;;;;0.82;0.50;;;;;;;28.49;40.98;99388.00;5050635;28;20045;-59
2022/07/30 08:06:41;;;;;;;0.52;0.50;;;;;;;28.49;41.04;99390.00;5050658;28;20420;-59
2022/07/30 08:09:06;;;;;;;0.85;0.57;;;;;;;28.48;40.84;99392.03;5050708;28;20087;-58
2022/07/30 08:11:32;;;;;;;0.43;0.40;;;;;;;28.47;40.83;99390.44;5050738;28;20041;-57
2022/07/30 08:13:57;;;;;;;0.90;0.60;;;;;;;28.47;40.84;99387.63;5050652;28;20053;-58
2022/07/30 08:16:22;;;;;;;0.65;0.50;;;;;;;28.51;40.81;99396.81;5050342;28;20398;-59
2022/07/30 08:18:48;;;;;;;0.88;0.60;;;;;;;28.48;40.67;99391.25;5050564;28;20485;-59
2022/07/30 08:21:14;;;;;;;0.75;0.47;;;;;;;28.50;40.67;99386.78;5050386;28;20052;-59
2022/07/30 08:23:40;;;;;;;1.38;0.50;;;;;;;28.47;40.94;99386.84;5050334;28;20064;-57
2022/07/30 08:26:06;;;;;;;0.60;0.40;;;;;;;28.51;40.79;99393.22;5050416;28;20566;-58
2022/07/30 08:28:31;;;;;;;0.93;0.60;;;;;;;28.44;40.75;99388.50;5048310;28;20049;-57
2022/07/30 08:30:57;;;;;;;0.82;0.47;;;;;;;28.48;40.69;99386.41;5050475;28;20098;-58
2022/07/30 08:33:22;;;;;;;0.63;0.50;;;;;;;28.51;40.60;99385.56;5050251;28;20389;-59
2022/07/30 08:35:48;;;;;;;0.70;0.50;;;;;;;28.55;40.65;99388.31;5049396;28;20041;-58
2022/07/30 08:38:13;;;;;;;0.57;0.40;;;;;;;28.50;40.28;99378.34;5050094;28;20041;-58
2022/07/30 08:40:39;;;;;;;0.73;0.50;;;;;;;28.47;40.77;99382.00;5050391;28;20075;-58
2022/07/30 08:43:06;;;;;;;0.80;0.60;;;;;;;28.45;40.68;99383.66;5050005;28;20045;-57
2022/07/30 08:45:33;;;;;;;0.43;0.40;;;;;;;28.44;40.58;99382.88;5050068;28;20045;-58
2022/07/30 08:48:06;;;;;;;2.25;0.40;;;;;;;28.46;40.69;99380.41;5050231;28;20045;-58
2022/07/30 08:50:33;;;;;;;0.55;0.40;;;;;;;28.50;40.45;99381.16;5048090;28;20472;-58
2022/07/30 08:53:00;;;;;;;0.43;0.40;;;;;;;28.49;40.65;99376.72;5049714;28;20110;-59
2022/07/30 08:55:26;;;;;;;0.65;0.50;;;;;;;28.49;40.43;99376.72;5046409;28;20056;-59
2022/07/30 08:57:52;;;;;;;0.60;0.40;;;;;;;28.54;40.39;99371.84;5049876;28;20049;-59
2022/07/30 09:00:18;;;;;;;0.43;0.40;;;;;;;28.54;40.29;99374.66;5049918;28;20097;-59
2022/07/30 09:02:44;;;;;;;0.55;0.43;;;;;;;28.54;40.33;99369.03;5050052;28;20100;-59
2022/07/30 09:05:10;;;;;;;0.40;0.38;;;;;;;28.52;40.40;99370.28;5050101;28;20045;-58
2022/07/30 09:07:36;;;;;;;0.55;0.45;;;;;;;28.55;40.35;99370.63;5049722;28;20099;-59
2022/07/30 09:10:07;;;;;;;0.60;0.43;;;;;;;28.54;40.33;99371.84;5049785;28;20045;-58
2022/07/30 09:12:44;;;;;;;0.82;0.50;;;;;;;28.55;40.18;99365.00;5049730;28;20432;-59
2022/07/30 09:15:14;;;;;;;0.45;0.40;;;;;;;28.55;40.31;99365.00;5049700;28;20049;-59
2022/07/30 09:17:56;;;;;;;0.38;0.32;;;;;;;28.49;40.30;99362.66;5049617;28;20052;-59
2022/07/30 09:20:35;;;;;;;0.93;0.63;;;;;;;28.49;40.34;99356.25;5049577;28;20438;-58
2022/07/30 09:23:05;;;;;;;0.70;0.50;;;;;;;28.51;40.18;99357.44;5049530;28;20044;-58
2022/07/30 09:25:42;;;;;;;0.60;0.45;;;;;;;28.47;40.31;99359.50;5049789;28;20488;-59
2022/07/30 09:28:09;;;;;;;0.77;0.30;;;;;;;28.49;40.00;99359.06;5049553;28;20133;-57
2022/07/30 09:30:48;;;;;;;0.65;0.40;;;;;;;28.48;40.30;99360.28;5049446;28;20041;-58
2022/07/30 09:33:14;;;;;;;0.73;0.63;;;;;;;28.48;40.36;99355.44;5049524;28;20049;-57
2022/07/30 09:35:41;;;;;;;0.55;0.47;;;;;;;28.51;40.26;99351.00;5049636;28;20053;-59
2022/07/30 09:38:06;;;;;;;0.70;0.47;;;;;;;28.51;40.07;99348.97;5049279;28;20094;-58
2022/07/30 09:40:33;;;;;;;0.30;0.30;;;;;;;28.52;39.84;99355.41;5049316;28;20041;-58
2022/07/30 09:43:10;;;;;;;0.30;0.30;;;;;;;28.48;39.95;99355.44;5049335;28;20095;-58
2022/07/30 09:45:48;;;;;;;0.32;0.32;;;;;;;28.48;39.99;99341.38;5049297;28;20412;-58
2022/07/30 09:48:22;;;;;;;0.70;0.43;;;;;;;28.52;39.95;99344.16;5050768;28;20045;-58
2022/07/30 09:50:50;;;;;;;0.55;0.50;;;;;;;28.51;39.96;99342.56;5052913;28;20041;-58
2022/07/30 09:53:16;;;;;;;0.60;0.47;;;;;;;28.51;40.13;99337.72;5052664;28;20056;-59
2022/07/30 09:55:42;;;;;;;0.55;0.40;;;;;;;28.57;40.04;99346.44;5052715;28;20161;-59
2022/07/30 09:58:08;;;;;;;0.50;0.40;;;;;;;28.52;39.74;99339.31;5052804;28;20708;-58
2022/07/30 10:00:35;;;;;;;0.60;0.50;;;;;;;28.57;39.63;99338.00;5052583;28;20438;-58
2022/07/30 10:03:14;;;;;;;0.40;0.38;;;;;;;28.57;39.85;99334.41;5052730;28;20455;-58
2022/07/30 10:05:52;;;;;;;0.75;0.40;;;;;;;28.58;39.77;99321.94;5052519;28;20114;-58
2022/07/30 10:08:19;;;;;;;0.63;0.43;;;;;;;28.57;39.80;99325.94;5052665;28;20049;-58
2022/07/30 10:10:45;;;;;;;0.52;0.40;;;;;;;28.59;39.33;99315.88;5052451;28;20041;-58
2022/07/30 10:13:13;;;;;;;0.50;0.45;;;;;;;28.58;39.45;99313.50;5052318;28;20068;-59
2022/07/30 10:15:38;;;;;;;0.45;0.40;;;;;;;28.57;39.76;99301.41;5052584;28;20041;-58
2022/07/30 10:18:05;;;;;;;0.40;0.40;;;;;;;28.58;39.45;99305.84;5052511;28;20044;-58
2022/07/30 10:20:30;;;;;;;0.57;0.40;;;;;;;28.56;39.45;99305.47;5052217;28;20044;-58
2022/07/30 10:22:57;;;;;;;0.55;0.50;;;;;;;28.54;39.59;99298.69;5052395;28;20041;-58
2022/07/30 10:25:24;;;;;;;0.35;0.30;;;;;;;28.54;39.75;99290.25;5052275;28;20056;-59
2022/07/30 10:27:50;;;;;;;0.68;0.50;;;;;;;28.59;39.39;99290.56;5052191;28;20041;-58
2022/07/30 10:30:16;;;;;;;0.38;0.30;;;;;;;28.58;39.53;99283.34;5051919;28;20409;-57
2022/07/30 10:32:43;;;;;;;0.70;0.47;;;;;;;28.60;39.34;99283.69;5052041;28;20053;-57
2022/07/30 10:35:09;;;;;;;0.30;0.30;;;;;;;28.61;39.42;99285.28;5052234;28;20040;-58
2022/07/30 10:37:39;;;;;;;0.50;0.40;;;;;;;28.57;39.62;99275.31;5052150;28;20045;-58
2022/07/30 10:40:17;;;;;;;0.90;0.50;;;;;;;28.58;39.45;99282.53;5052073;28;20523;-58
2022/07/30 10:43:10;;;;;;;0.63;0.40;;;;;;;28.57;39.51;99276.09;5052149;28;20049;-59
2022/07/30 10:45:55;;;;;;;0.95;0.50;;;;;;;28.60;39.91;99277.28;5051548;28;20045;-58
2022/07/30 10:48:21;;;;;;;0.60;0.40;;;;;;;28.64;39.56;99275.16;5051982;28;20090;-58
2022/07/30 10:50:57;;;;;;;0.60;0.40;;;;;;;28.66;39.70;99275.53;5051980;28;20060;-58
2022/07/30 10:53:36;;;;;;;0.57;0.40;;;;;;;28.66;39.88;99276.34;5051884;28;20143;-58
2022/07/30 10:56:34;;;;;;;0.40;0.40;;;;;;;28.69;39.72;99269.03;5052021;28;20573;-58
2022/07/30 10:59:01;;;;;;;0.47;0.40;;;;;;;28.67;39.86;99269.47;5017361;28;20140;-59
2022/07/30 11:01:47;;;;;;;0.88;0.40;;;;;;;28.72;39.79;99265.34;5051795;28;20437;-59
2022/07/30 11:04:18;;;;;;;0.45;0.28;;;;;;;28.73;39.86;99258.50;5051590;28;20049;-58
2022/07/30 11:06:44;;;;;;;0.50;0.40;;;;;;;28.71;39.75;99258.13;5051722;28;20033;-58
2022/07/30 11:09:38;;;;;;;0.50;0.40;;;;;;;28.72;39.77;99257.72;5051631;28;20052;-58
2022/07/30 11:12:05;;;;;;;0.22;0.22;;;;;;;28.75;39.93;99261.69;5051652;28;20103;-59
2022/07/30 11:14:46;;;;;;;1.23;0.50;;;;;;;28.76;39.67;99249.19;5051456;28;20567;-59
2022/07/30 11:17:18;;;;;;;0.68;0.50;;;;;;;28.76;39.84;99252.78;5051601;28;20391;-59
2022/07/30 11:20:05;;;;;;;1.08;0.45;;;;;;;28.78;39.76;99238.28;5051446;28;20453;-59
2022/07/30 11:22:39;;;;;;;0.30;0.30;;;;;;;28.77;39.91;99240.31;5048736;28;20045;-58
2022/07/30 11:25:06;;;;;;;0.45;0.40;;;;;;;28.76;39.73;99246.38;5051312;28;20207;-58
2022/07/30 11:27:45;;;;;;;0.77;0.40;;;;;;;28.74;39.88;99248.84;5051364;28;20410;-57
2022/07/30 11:30:20;;;;;;;0.30;0.30;;;;;;;28.73;39.89;99242.41;5051508;28;20178;-59
2022/07/30 11:32:53;;;;;;;0.68;0.40;;;;;;;28.75;39.64;99245.59;5051300;28;20119;-58
2022/07/30 11:35:26;;;;;;;0.70;0.20;;;;;;;28.73;39.98;99245.22;5051175;28;20041;-57
2022/07/30 11:38:07;;;;;;;0.47;0.40;;;;;;;28.74;39.76;99240.41;5051324;28;20048;-58
2022/07/30 11:40:33;;;;;;;0.73;0.40;;;;;;;28.75;39.94;99231.50;5051338;28;20064;-57